sensor_id;sensor_type;location;lat;lon;timestamp;temperature;humidity
52044;DHT22;38053;53.100;6.078;2023-04-03T00:01:30;2.40;99.90
52044;DHT22;38053;53.100;6.078;2023-04-03T00:03:56;2.30;99.90
52044;DHT22;38053;53.100;6.078;2023-04-03T00:06:23;2.30;99.90
52044;DHT22;38053;53.100;6.078;2023-04-03T00:08:50;2.30;99.90
52044;DHT22;38053;53.100;6.078;2023-04-03T00:11:18;2.30;99.90
52044;DHT22;38053;53.100;6.078;2023-04-03T00:13:46;2.20;99.90
52044;DHT22;38053;53.100;6.078;2023-04-03T00:16:12;2.30;99.90
52044;DHT22;38053;53.100;6.078;2023-04-03T00:18:39;2.30;99.90
52044;DHT22;38053;53.100;6.078;2023-04-03T00:21:07;2.30;99.90
52044;DHT22;38053;53.100;6.078;2023-04-03T00:23:33;2.30;99.90
52044;DHT22;38053;53.100;6.078;2023-04-03T00:26:00;2.20;99.90
52044;DHT22;38053;53.100;6.078;2023-04-03T00:28:25;2.20;99.90
52044;DHT22;38053;53.100;6.078;2023-04-03T00:30:52;2.20;99.90
52044;DHT22;38053;53.100;6.078;2023-04-03T00:33:18;2.10;99.90
52044;DHT22;38053;53.100;6.078;2023-04-03T00:35:50;2.10;99.90
52044;DHT22;38053;53.100;6.078;2023-04-03T00:38:16;2.10;99.90
52044;DHT22;38053;53.100;6.078;2023-04-03T00:40:45;2.10;99.90
52044;DHT22;38053;53.100;6.078;2023-04-03T00:43:23;2.00;99.90
52044;DHT22;38053;53.100;6.078;2023-04-03T00:45:51;2.00;99.90
52044;DHT22;38053;53.100;6.078;2023-04-03T00:48:29;2.00;99.90
52044;DHT22;38053;53.100;6.078;2023-04-03T00:51:00;2.00;99.90
52044;DHT22;38053;53.100;6.078;2023-04-03T00:53:35;1.90;99.90
52044;DHT22;38053;53.100;6.078;2023-04-03T00:56:05;2.00;99.90
52044;DHT22;38053;53.100;6.078;2023-04-03T00:58:50;1.90;99.90
52044;DHT22;38053;53.100;6.078;2023-04-03T01:01:21;2.00;99.90
52044;DHT22;38053;53.100;6.078;2023-04-03T01:03:51;2.00;99.90
52044;DHT22;38053;53.100;6.078;2023-04-03T01:06:29;1.90;99.90
52044;DHT22;38053;53.100;6.078;2023-04-03T01:09:00;1.90;99.90
52044;DHT22;38053;53.100;6.078;2023-04-03T01:11:28;1.80;99.90
52044;DHT22;38053;53.100;6.078;2023-04-03T01:13:54;1.80;99.90
52044;DHT22;38053;53.100;6.078;2023-04-03T01:16:21;1.70;99.90
52044;DHT22;38053;53.100;6.078;2023-04-03T01:18:50;1.70;99.90
52044;DHT22;38053;53.100;6.078;2023-04-03T01:21:48;1.70;99.90
52044;DHT22;38053;53.100;6.078;2023-04-03T01:24:33;1.70;99.90
52044;DHT22;38053;53.100;6.078;2023-04-03T01:27:02;1.70;99.90
52044;DHT22;38053;53.100;6.078;2023-04-03T01:29:31;1.60;99.90
52044;DHT22;38053;53.100;6.078;2023-04-03T01:31:59;1.60;99.90
52044;DHT22;38053;53.100;6.078;2023-04-03T01:34:26;1.50;99.90
52044;DHT22;38053;53.100;6.078;2023-04-03T01:36:52;1.50;99.90
52044;DHT22;38053;53.100;6.078;2023-04-03T01:39:21;1.50;99.90
52044;DHT22;38053;53.100;6.078;2023-04-03T01:41:50;1.40;99.90
52044;DHT22;38053;53.100;6.078;2023-04-03T01:44:16;1.40;99.90
52044;DHT22;38053;53.100;6.078;2023-04-03T01:46:42;1.40;99.90
52044;DHT22;38053;53.100;6.078;2023-04-03T01:49:08;1.30;99.90
52044;DHT22;38053;53.100;6.078;2023-04-03T01:51:42;1.30;99.90
52044;DHT22;38053;53.100;6.078;2023-04-03T01:54:08;1.20;99.90
52044;DHT22;38053;53.100;6.078;2023-04-03T01:56:34;1.20;99.90
52044;DHT22;38053;53.100;6.078;2023-04-03T01:59:03;1.20;99.90
52044;DHT22;38053;53.100;6.078;2023-04-03T02:01:29;1.20;99.90
52044;DHT22;38053;53.100;6.078;2023-04-03T02:03:58;1.10;99.90
52044;DHT22;38053;53.100;6.078;2023-04-03T02:06:23;1.10;99.90
52044;DHT22;38053;53.100;6.078;2023-04-03T02:08:50;1.10;99.90
52044;DHT22;38053;53.100;6.078;2023-04-03T02:11:16;1.10;99.90
52044;DHT22;38053;53.100;6.078;2023-04-03T02:13:42;1.00;99.90
52044;DHT22;38053;53.100;6.078;2023-04-03T02:16:11;1.00;99.90
52044;DHT22;38053;53.100;6.078;2023-04-03T02:18:40;1.00;99.90
52044;DHT22;38053;53.100;6.078;2023-04-03T02:21:05;1.00;99.90
52044;DHT22;38053;53.100;6.078;2023-04-03T02:23:31;0.90;99.90
52044;DHT22;38053;53.100;6.078;2023-04-03T02:26:12;0.90;99.90
52044;DHT22;38053;53.100;6.078;2023-04-03T02:28:38;0.90;99.90
52044;DHT22;38053;53.100;6.078;2023-04-03T02:31:05;0.80;99.90
52044;DHT22;38053;53.100;6.078;2023-04-03T02:33:32;0.80;99.90
52044;DHT22;38053;53.100;6.078;2023-04-03T02:36:01;0.80;99.90
52044;DHT22;38053;53.100;6.078;2023-04-03T02:38:26;0.80;99.90
52044;DHT22;38053;53.100;6.078;2023-04-03T02:40:52;0.80;99.90
52044;DHT22;38053;53.100;6.078;2023-04-03T02:43:18;0.70;99.90
52044;DHT22;38053;53.100;6.078;2023-04-03T02:45:44;0.70;99.90
52044;DHT22;38053;53.100;6.078;2023-04-03T02:48:11;0.70;99.90
52044;DHT22;38053;53.100;6.078;2023-04-03T02:50:37;0.70;99.90
52044;DHT22;38053;53.100;6.078;2023-04-03T02:53:03;0.60;99.90
52044;DHT22;38053;53.100;6.078;2023-04-03T02:55:29;0.60;99.90
52044;DHT22;38053;53.100;6.078;2023-04-03T02:57:55;0.60;99.90
52044;DHT22;38053;53.100;6.078;2023-04-03T03:00:21;0.60;99.90
52044;DHT22;38053;53.100;6.078;2023-04-03T03:02:50;0.50;99.90
52044;DHT22;38053;53.100;6.078;2023-04-03T03:05:18;0.50;99.90
52044;DHT22;38053;53.100;6.078;2023-04-03T03:07:44;0.50;99.90
52044;DHT22;38053;53.100;6.078;2023-04-03T03:10:10;0.40;99.90
52044;DHT22;38053;53.100;6.078;2023-04-03T03:12:36;0.40;99.90
52044;DHT22;38053;53.100;6.078;2023-04-03T03:15:01;0.40;99.90
52044;DHT22;38053;53.100;6.078;2023-04-03T03:17:27;0.40;99.90
52044;DHT22;38053;53.100;6.078;2023-04-03T03:19:53;0.40;99.90
52044;DHT22;38053;53.100;6.078;2023-04-03T03:22:19;0.40;99.90
52044;DHT22;38053;53.100;6.078;2023-04-03T03:24:45;0.40;99.90
52044;DHT22;38053;53.100;6.078;2023-04-03T03:27:11;0.40;99.90
52044;DHT22;38053;53.100;6.078;2023-04-03T03:29:37;0.40;99.90
52044;DHT22;38053;53.100;6.078;2023-04-03T03:32:06;0.40;99.90
52044;DHT22;38053;53.100;6.078;2023-04-03T03:34:32;0.30;99.90
52044;DHT22;38053;53.100;6.078;2023-04-03T03:37:01;0.30;99.90
52044;DHT22;38053;53.100;6.078;2023-04-03T03:39:28;0.30;99.90
52044;DHT22;38053;53.100;6.078;2023-04-03T03:41:54;0.20;99.90
52044;DHT22;38053;53.100;6.078;2023-04-03T03:44:20;0.20;99.90
52044;DHT22;38053;53.100;6.078;2023-04-03T03:46:46;0.20;99.90
52044;DHT22;38053;53.100;6.078;2023-04-03T03:49:16;0.20;99.90
52044;DHT22;38053;53.100;6.078;2023-04-03T03:51:42;0.10;99.90
52044;DHT22;38053;53.100;6.078;2023-04-03T03:54:07;0.10;99.90
52044;DHT22;38053;53.100;6.078;2023-04-03T03:56:39;0.10;99.90
52044;DHT22;38053;53.100;6.078;2023-04-03T03:59:05;0.10;99.90
52044;DHT22;38053;53.100;6.078;2023-04-03T04:01:32;0.10;99.90
52044;DHT22;38053;53.100;6.078;2023-04-03T04:03:58;0.00;99.90
52044;DHT22;38053;53.100;6.078;2023-04-03T04:06:24;0.00;99.90
52044;DHT22;38053;53.100;6.078;2023-04-03T04:08:52;0.00;99.90
52044;DHT22;38053;53.100;6.078;2023-04-03T04:11:19;0.00;99.90
52044;DHT22;38053;53.100;6.078;2023-04-03T04:13:46;0.00;99.90
52044;DHT22;38053;53.100;6.078;2023-04-03T04:16:13;0.10;99.90
52044;DHT22;38053;53.100;6.078;2023-04-03T04:18:42;0.10;99.90
52044;DHT22;38053;53.100;6.078;2023-04-03T04:21:08;0.00;99.90
52044;DHT22;38053;53.100;6.078;2023-04-03T04:23:33;0.00;99.90
52044;DHT22;38053;53.100;6.078;2023-04-03T04:25:59;-0.10;99.90
52044;DHT22;38053;53.100;6.078;2023-04-03T04:28:25;-0.10;99.90
52044;DHT22;38053;53.100;6.078;2023-04-03T04:30:51;-0.20;99.90
52044;DHT22;38053;53.100;6.078;2023-04-03T04:33:16;-0.20;99.90
52044;DHT22;38053;53.100;6.078;2023-04-03T04:35:43;-0.20;99.90
52044;DHT22;38053;53.100;6.078;2023-04-03T04:38:12;-0.20;99.90
52044;DHT22;38053;53.100;6.078;2023-04-03T04:40:38;-0.20;99.90
52044;DHT22;38053;53.100;6.078;2023-04-03T04:43:03;-0.20;99.90
52044;DHT22;38053;53.100;6.078;2023-04-03T04:45:29;-0.20;99.90
52044;DHT22;38053;53.100;6.078;2023-04-03T04:47:56;-0.20;99.90
52044;DHT22;38053;53.100;6.078;2023-04-03T04:50:25;-0.20;99.90
52044;DHT22;38053;53.100;6.078;2023-04-03T04:52:50;-0.20;99.90
52044;DHT22;38053;53.100;6.078;2023-04-03T04:55:16;-0.20;99.90
52044;DHT22;38053;53.100;6.078;2023-04-03T04:57:43;-0.20;99.90
52044;DHT22;38053;53.100;6.078;2023-04-03T05:00:13;-0.30;99.90
52044;DHT22;38053;53.100;6.078;2023-04-03T05:02:39;-0.30;99.90
52044;DHT22;38053;53.100;6.078;2023-04-03T05:05:05;-0.30;99.90
52044;DHT22;38053;53.100;6.078;2023-04-03T05:07:31;-0.30;99.90
52044;DHT22;38053;53.100;6.078;2023-04-03T05:09:57;-0.30;99.90
52044;DHT22;38053;53.100;6.078;2023-04-03T05:12:22;-0.20;99.90
52044;DHT22;38053;53.100;6.078;2023-04-03T05:14:48;-0.30;99.90
52044;DHT22;38053;53.100;6.078;2023-04-03T05:17:14;-0.30;99.90
52044;DHT22;38053;53.100;6.078;2023-04-03T05:19:39;-0.30;99.90
52044;DHT22;38053;53.100;6.078;2023-04-03T05:22:05;-0.40;99.90
52044;DHT22;38053;53.100;6.078;2023-04-03T05:24:31;-0.30;99.90
52044;DHT22;38053;53.100;6.078;2023-04-03T05:26:57;-0.40;99.90
52044;DHT22;38053;53.100;6.078;2023-04-03T05:29:22;-0.40;99.90
52044;DHT22;38053;53.100;6.078;2023-04-03T05:31:52;-0.40;99.90
52044;DHT22;38053;53.100;6.078;2023-04-03T05:34:22;-0.40;99.90
52044;DHT22;38053;53.100;6.078;2023-04-03T05:36:48;-0.40;99.90
52044;DHT22;38053;53.100;6.078;2023-04-03T05:39:14;-0.40;99.90
52044;DHT22;38053;53.100;6.078;2023-04-03T05:41:41;-0.40;99.90
52044;DHT22;38053;53.100;6.078;2023-04-03T05:44:09;-0.40;99.90
52044;DHT22;38053;53.100;6.078;2023-04-03T05:46:35;-0.40;99.90
52044;DHT22;38053;53.100;6.078;2023-04-03T05:49:01;-0.40;99.90
52044;DHT22;38053;53.100;6.078;2023-04-03T05:51:34;-0.40;99.90
52044;DHT22;38053;53.100;6.078;2023-04-03T05:54:16;-0.40;99.90
52044;DHT22;38053;53.100;6.078;2023-04-03T05:56:45;-0.40;99.90
52044;DHT22;38053;53.100;6.078;2023-04-03T05:59:14;-0.40;99.90
52044;DHT22;38053;53.100;6.078;2023-04-03T06:01:42;-0.30;99.90
52044;DHT22;38053;53.100;6.078;2023-04-03T06:04:11;-0.30;99.90
52044;DHT22;38053;53.100;6.078;2023-04-03T06:06:51;-0.30;99.90
52044;DHT22;38053;53.100;6.078;2023-04-03T06:09:20;-0.20;99.90
52044;DHT22;38053;53.100;6.078;2023-04-03T06:11:46;-0.20;99.90
52044;DHT22;38053;53.100;6.078;2023-04-03T06:14:15;-0.20;99.90
52044;DHT22;38053;53.100;6.078;2023-04-03T06:16:41;-0.10;99.90
52044;DHT22;38053;53.100;6.078;2023-04-03T06:19:08;-0.10;99.90
52044;DHT22;38053;53.100;6.078;2023-04-03T06:21:34;0.00;99.90
52044;DHT22;38053;53.100;6.078;2023-04-03T06:24:02;0.00;99.90
52044;DHT22;38053;53.100;6.078;2023-04-03T06:26:28;0.10;99.90
52044;DHT22;38053;53.100;6.078;2023-04-03T06:28:57;0.10;99.90
52044;DHT22;38053;53.100;6.078;2023-04-03T06:31:22;0.20;99.90
52044;DHT22;38053;53.100;6.078;2023-04-03T06:33:48;0.20;99.90
52044;DHT22;38053;53.100;6.078;2023-04-03T06:36:14;0.30;99.90
52044;DHT22;38053;53.100;6.078;2023-04-03T06:38:40;0.40;99.90
52044;DHT22;38053;53.100;6.078;2023-04-03T06:41:06;0.40;99.90
52044;DHT22;38053;53.100;6.078;2023-04-03T06:43:33;0.50;99.90
52044;DHT22;38053;53.100;6.078;2023-04-03T06:45:59;0.50;99.90
52044;DHT22;38053;53.100;6.078;2023-04-03T06:48:25;0.60;99.90
52044;DHT22;38053;53.100;6.078;2023-04-03T06:50:53;0.70;99.90
52044;DHT22;38053;53.100;6.078;2023-04-03T06:53:19;0.70;99.90
52044;DHT22;38053;53.100;6.078;2023-04-03T06:55:45;0.80;99.90
52044;DHT22;38053;53.100;6.078;2023-04-03T06:58:18;0.80;99.90
52044;DHT22;38053;53.100;6.078;2023-04-03T07:00:45;0.90;99.90
52044;DHT22;38053;53.100;6.078;2023-04-03T07:03:13;1.00;99.90
52044;DHT22;38053;53.100;6.078;2023-04-03T07:05:39;1.10;99.90
52044;DHT22;38053;53.100;6.078;2023-04-03T07:08:05;1.10;99.90
52044;DHT22;38053;53.100;6.078;2023-04-03T07:10:34;1.20;99.90
52044;DHT22;38053;53.100;6.078;2023-04-03T07:13:09;1.30;99.90
52044;DHT22;38053;53.100;6.078;2023-04-03T07:15:34;1.30;99.90
52044;DHT22;38053;53.100;6.078;2023-04-03T07:18:02;1.40;99.90
52044;DHT22;38053;53.100;6.078;2023-04-03T07:20:28;1.50;99.90
52044;DHT22;38053;53.100;6.078;2023-04-03T07:22:54;1.50;99.90
52044;DHT22;38053;53.100;6.078;2023-04-03T07:25:20;1.60;99.90
52044;DHT22;38053;53.100;6.078;2023-04-03T07:27:45;1.70;99.90
52044;DHT22;38053;53.100;6.078;2023-04-03T07:30:11;1.80;99.90
52044;DHT22;38053;53.100;6.078;2023-04-03T07:32:43;1.90;99.90
52044;DHT22;38053;53.100;6.078;2023-04-03T07:35:11;2.00;99.90
52044;DHT22;38053;53.100;6.078;2023-04-03T07:37:37;2.00;99.90
52044;DHT22;38053;53.100;6.078;2023-04-03T07:40:03;2.10;99.90
52044;DHT22;38053;53.100;6.078;2023-04-03T07:42:32;2.20;99.90
52044;DHT22;38053;53.100;6.078;2023-04-03T07:44:57;2.30;99.90
52044;DHT22;38053;53.100;6.078;2023-04-03T07:47:23;2.40;99.90
52044;DHT22;38053;53.100;6.078;2023-04-03T07:49:49;2.50;99.90
52044;DHT22;38053;53.100;6.078;2023-04-03T07:52:15;2.60;99.90
52044;DHT22;38053;53.100;6.078;2023-04-03T07:54:41;2.60;99.90
52044;DHT22;38053;53.100;6.078;2023-04-03T07:57:10;2.70;99.90
52044;DHT22;38053;53.100;6.078;2023-04-03T07:59:36;2.80;99.90
52044;DHT22;38053;53.100;6.078;2023-04-03T08:02:02;2.80;99.90
52044;DHT22;38053;53.100;6.078;2023-04-03T08:04:30;2.90;99.90
52044;DHT22;38053;53.100;6.078;2023-04-03T08:06:55;3.00;99.90
52044;DHT22;38053;53.100;6.078;2023-04-03T08:09:21;3.20;99.90
52044;DHT22;38053;53.100;6.078;2023-04-03T08:11:50;3.20;99.90
52044;DHT22;38053;53.100;6.078;2023-04-03T08:14:22;3.30;99.90
52044;DHT22;38053;53.100;6.078;2023-04-03T08:20:21;3.50;99.90
52044;DHT22;38053;53.100;6.078;2023-04-03T08:22:57;3.70;99.90
52044;DHT22;38053;53.100;6.078;2023-04-03T08:25:40;3.80;99.90
52044;DHT22;38053;53.100;6.078;2023-04-03T08:28:15;3.90;99.90
52044;DHT22;38053;53.100;6.078;2023-04-03T08:31:03;4.00;99.90
52044;DHT22;38053;53.100;6.078;2023-04-03T08:33:48;4.10;99.90
52044;DHT22;38053;53.100;6.078;2023-04-03T08:36:36;4.20;99.90
52044;DHT22;38053;53.100;6.078;2023-04-03T08:39:25;4.30;99.90
52044;DHT22;38053;53.100;6.078;2023-04-03T08:48:08;4.60;99.90
52044;DHT22;38053;53.100;6.078;2023-04-03T08:50:40;4.80;99.90
52044;DHT22;38053;53.100;6.078;2023-04-03T08:53:15;4.80;99.90
52044;DHT22;38053;53.100;6.078;2023-04-03T08:56:09;5.00;99.90
52044;DHT22;38053;53.100;6.078;2023-04-03T08:58:56;5.00;99.90
52044;DHT22;38053;53.100;6.078;2023-04-03T09:01:58;5.10;99.90
52044;DHT22;38053;53.100;6.078;2023-04-03T09:04:49;5.20;99.90
52044;DHT22;38053;53.100;6.078;2023-04-03T09:07:25;5.30;99.90
52044;DHT22;38053;53.100;6.078;2023-04-03T09:09:59;5.40;99.90
52044;DHT22;38053;53.100;6.078;2023-04-03T09:15:44;5.60;99.90
52044;DHT22;38053;53.100;6.078;2023-04-03T09:21:31;5.80;99.90
52044;DHT22;38053;53.100;6.078;2023-04-03T09:27:50;6.10;99.90
52044;DHT22;38053;53.100;6.078;2023-04-03T09:30:43;6.20;99.90
52044;DHT22;38053;53.100;6.078;2023-04-03T09:33:36;6.20;99.90
52044;DHT22;38053;53.100;6.078;2023-04-03T09:39:29;6.40;99.90
52044;DHT22;38053;53.100;6.078;2023-04-03T09:42:39;6.60;99.90
52044;DHT22;38053;53.100;6.078;2023-04-03T09:45:35;6.70;99.90
52044;DHT22;38053;53.100;6.078;2023-04-03T09:58:38;7.40;99.90
52044;DHT22;38053;53.100;6.078;2023-04-03T10:05:58;7.70;99.90
52044;DHT22;38053;53.100;6.078;2023-04-03T10:12:26;8.00;99.90
52044;DHT22;38053;53.100;6.078;2023-04-03T10:15:01;8.20;99.90
52044;DHT22;38053;53.100;6.078;2023-04-03T10:17:32;8.30;99.90
52044;DHT22;38053;53.100;6.078;2023-04-03T10:26:04;8.50;95.70
52044;DHT22;38053;53.100;6.078;2023-04-03T10:38:08;9.00;96.40
52044;DHT22;38053;53.100;6.078;2023-04-03T10:41:16;9.10;94.80
52044;DHT22;38053;53.100;6.078;2023-04-03T10:46:48;9.20;94.80
52044;DHT22;38053;53.100;6.078;2023-04-03T11:15:49;9.70;88.20
52044;DHT22;38053;53.100;6.078;2023-04-03T11:21:39;9.70;86.00
52044;DHT22;38053;53.100;6.078;2023-04-03T11:24:06;9.70;89.20
52044;DHT22;38053;53.100;6.078;2023-04-03T11:26:40;9.80;90.10
52044;DHT22;38053;53.100;6.078;2023-04-03T11:29:23;10.00;90.50
52044;DHT22;38053;53.100;6.078;2023-04-03T11:32:23;10.20;90.30
52044;DHT22;38053;53.100;6.078;2023-04-03T11:35:05;10.40;90.10
52044;DHT22;38053;53.100;6.078;2023-04-03T11:37:47;10.60;88.80
52044;DHT22;38053;53.100;6.078;2023-04-03T11:40:22;10.80;88.20
52044;DHT22;38053;53.100;6.078;2023-04-03T11:43:17;11.10;90.50
52044;DHT22;38053;53.100;6.078;2023-04-03T11:45:49;11.40;87.10
52044;DHT22;38053;53.100;6.078;2023-04-03T11:54:52;12.20;82.90
52044;DHT22;38053;53.100;6.078;2023-04-03T11:58:14;12.20;84.00
52044;DHT22;38053;53.100;6.078;2023-04-03T12:01:09;12.30;79.80
52044;DHT22;38053;53.100;6.078;2023-04-03T12:11:31;13.40;76.80
52044;DHT22;38053;53.100;6.078;2023-04-03T12:14:03;13.40;78.00
52044;DHT22;38053;53.100;6.078;2023-04-03T12:19:31;13.60;76.20
52044;DHT22;38053;53.100;6.078;2023-04-03T12:25:49;14.00;75.30
52044;DHT22;38053;53.100;6.078;2023-04-03T12:27:52;14.20;71.80
52044;DHT22;38053;53.100;6.078;2023-04-03T12:30:30;14.30;74.30
52044;DHT22;38053;53.100;6.078;2023-04-03T12:36:53;15.00;70.40
52044;DHT22;38053;53.100;6.078;2023-04-03T12:59:32;15.60;67.70
52044;DHT22;38053;53.100;6.078;2023-04-03T13:09:27;14.40;66.10
52044;DHT22;38053;53.100;6.078;2023-04-03T13:15:29;14.90;66.50
52044;DHT22;38053;53.100;6.078;2023-04-03T13:18:33;15.10;68.20
52044;DHT22;38053;53.100;6.078;2023-04-03T13:21:44;15.40;68.30
52044;DHT22;38053;53.100;6.078;2023-04-03T13:24:13;15.50;66.10
52044;DHT22;38053;53.100;6.078;2023-04-03T13:26:39;15.60;65.90
52044;DHT22;38053;53.100;6.078;2023-04-03T13:29:27;15.60;66.20
52044;DHT22;38053;53.100;6.078;2023-04-03T13:31:55;15.40;64.70
52044;DHT22;38053;53.100;6.078;2023-04-03T13:34:26;14.50;66.10
52044;DHT22;38053;53.100;6.078;2023-04-03T13:39:23;13.70;66.00
52044;DHT22;38053;53.100;6.078;2023-04-03T13:41:54;13.10;68.60
52044;DHT22;38053;53.100;6.078;2023-04-03T13:47:23;13.50;69.20
52044;DHT22;38053;53.100;6.078;2023-04-03T13:50:20;13.90;67.90
52044;DHT22;38053;53.100;6.078;2023-04-03T13:53:03;13.80;70.00
52044;DHT22;38053;53.100;6.078;2023-04-03T13:55:39;13.50;67.30
52044;DHT22;38053;53.100;6.078;2023-04-03T13:58:28;13.20;68.20
52044;DHT22;38053;53.100;6.078;2023-04-03T14:08:52;12.30;71.00
52044;DHT22;38053;53.100;6.078;2023-04-03T14:11:39;12.70;70.40
52044;DHT22;38053;53.100;6.078;2023-04-03T14:14:16;13.00;70.50
52044;DHT22;38053;53.100;6.078;2023-04-03T14:16:46;13.30;70.40
52044;DHT22;38053;53.100;6.078;2023-04-03T14:19:39;13.30;69.10
52044;DHT22;38053;53.100;6.078;2023-04-03T14:22:18;13.00;68.70
52044;DHT22;38053;53.100;6.078;2023-04-03T14:24:45;12.80;69.50
52044;DHT22;38053;53.100;6.078;2023-04-03T14:27:27;12.90;69.30
52044;DHT22;38053;53.100;6.078;2023-04-03T14:29:58;12.80;69.60
52044;DHT22;38053;53.100;6.078;2023-04-03T14:32:29;12.60;69.60
52044;DHT22;38053;53.100;6.078;2023-04-03T14:34:55;12.50;71.90
52044;DHT22;38053;53.100;6.078;2023-04-03T14:37:25;12.10;69.60
52044;DHT22;38053;53.100;6.078;2023-04-03T14:39:54;12.20;70.90
52044;DHT22;38053;53.100;6.078;2023-04-03T14:42:28;12.20;71.80
52044;DHT22;38053;53.100;6.078;2023-04-03T14:44:58;12.20;73.50
52044;DHT22;38053;53.100;6.078;2023-04-03T14:47:27;12.20;71.90
52044;DHT22;38053;53.100;6.078;2023-04-03T14:49:53;12.10;70.50
52044;DHT22;38053;53.100;6.078;2023-04-03T14:52:32;12.30;71.50
52044;DHT22;38053;53.100;6.078;2023-04-03T14:55:00;12.70;69.60
52044;DHT22;38053;53.100;6.078;2023-04-03T14:57:28;13.10;68.50
52044;DHT22;38053;53.100;6.078;2023-04-03T14:59:56;13.10;69.20
52044;DHT22;38053;53.100;6.078;2023-04-03T15:02:33;13.00;69.90
52044;DHT22;38053;53.100;6.078;2023-04-03T15:05:01;12.70;69.50
52044;DHT22;38053;53.100;6.078;2023-04-03T15:07:31;12.60;70.90
52044;DHT22;38053;53.100;6.078;2023-04-03T15:10:02;12.50;70.50
52044;DHT22;38053;53.100;6.078;2023-04-03T15:12:29;12.50;70.90
52044;DHT22;38053;53.100;6.078;2023-04-03T15:14:54;12.50;71.20
52044;DHT22;38053;53.100;6.078;2023-04-03T15:17:22;12.50;72.10
52044;DHT22;38053;53.100;6.078;2023-04-03T15:19:48;12.80;72.90
52044;DHT22;38053;53.100;6.078;2023-04-03T15:22:18;12.70;74.70
52044;DHT22;38053;53.100;6.078;2023-04-03T15:24:44;12.50;75.80
52044;DHT22;38053;53.100;6.078;2023-04-03T15:27:12;12.10;75.80
52044;DHT22;38053;53.100;6.078;2023-04-03T15:29:40;12.20;76.50
52044;DHT22;38053;53.100;6.078;2023-04-03T15:32:09;12.40;76.20
52044;DHT22;38053;53.100;6.078;2023-04-03T15:34:35;12.50;74.80
52044;DHT22;38053;53.100;6.078;2023-04-03T15:37:01;12.40;75.60
52044;DHT22;38053;53.100;6.078;2023-04-03T15:39:27;12.60;75.90
52044;DHT22;38053;53.100;6.078;2023-04-03T15:41:53;12.80;74.80
52044;DHT22;38053;53.100;6.078;2023-04-03T15:44:20;12.90;74.00
52044;DHT22;38053;53.100;6.078;2023-04-03T15:46:47;12.90;74.00
52044;DHT22;38053;53.100;6.078;2023-04-03T15:49:14;12.80;73.40
52044;DHT22;38053;53.100;6.078;2023-04-03T15:51:40;12.90;73.90
52044;DHT22;38053;53.100;6.078;2023-04-03T15:54:06;12.80;73.90
52044;DHT22;38053;53.100;6.078;2023-04-03T15:56:32;12.70;74.00
52044;DHT22;38053;53.100;6.078;2023-04-03T15:58:58;12.60;73.80
52044;DHT22;38053;53.100;6.078;2023-04-03T16:01:23;12.70;75.10
52044;DHT22;38053;53.100;6.078;2023-04-03T16:03:49;12.90;76.00
52044;DHT22;38053;53.100;6.078;2023-04-03T16:06:17;12.90;76.30
52044;DHT22;38053;53.100;6.078;2023-04-03T16:08:44;13.40;75.50
52044;DHT22;38053;53.100;6.078;2023-04-03T16:11:14;13.70;74.60
52044;DHT22;38053;53.100;6.078;2023-04-03T16:13:40;13.60;74.50
52044;DHT22;38053;53.100;6.078;2023-04-03T16:16:15;13.20;74.30
52044;DHT22;38053;53.100;6.078;2023-04-03T16:18:49;12.60;75.60
52044;DHT22;38053;53.100;6.078;2023-04-03T16:21:22;11.50;78.10
52044;DHT22;38053;53.100;6.078;2023-04-03T16:23:48;10.90;80.20
52044;DHT22;38053;53.100;6.078;2023-04-03T16:26:14;10.50;81.80
52044;DHT22;38053;53.100;6.078;2023-04-03T16:28:40;10.10;82.70
52044;DHT22;38053;53.100;6.078;2023-04-03T16:31:07;9.90;82.90
52044;DHT22;38053;53.100;6.078;2023-04-03T16:33:33;9.70;83.60
52044;DHT22;38053;53.100;6.078;2023-04-03T16:36:00;9.40;83.80
52044;DHT22;38053;53.100;6.078;2023-04-03T16:38:25;9.30;84.10
52044;DHT22;38053;53.100;6.078;2023-04-03T16:40:51;9.20;85.00
52044;DHT22;38053;53.100;6.078;2023-04-03T16:43:21;9.10;84.20
52044;DHT22;38053;53.100;6.078;2023-04-03T16:45:47;9.00;85.30
52044;DHT22;38053;53.100;6.078;2023-04-03T16:48:13;9.00;84.90
52044;DHT22;38053;53.100;6.078;2023-04-03T16:50:39;8.90;85.70
52044;DHT22;38053;53.100;6.078;2023-04-03T16:53:05;8.80;86.20
52044;DHT22;38053;53.100;6.078;2023-04-03T16:55:35;8.70;87.30
52044;DHT22;38053;53.100;6.078;2023-04-03T16:58:01;8.60;88.40
52044;DHT22;38053;53.100;6.078;2023-04-03T17:00:30;8.60;89.60
52044;DHT22;38053;53.100;6.078;2023-04-03T17:02:56;8.60;89.70
52044;DHT22;38053;53.100;6.078;2023-04-03T17:05:24;8.50;90.30
52044;DHT22;38053;53.100;6.078;2023-04-03T17:07:50;8.50;90.50
52044;DHT22;38053;53.100;6.078;2023-04-03T17:10:19;8.40;90.60
52044;DHT22;38053;53.100;6.078;2023-04-03T17:12:45;8.30;90.90
52044;DHT22;38053;53.100;6.078;2023-04-03T17:15:21;8.20;91.20
52044;DHT22;38053;53.100;6.078;2023-04-03T17:17:51;8.20;91.80
52044;DHT22;38053;53.100;6.078;2023-04-03T17:20:17;8.10;91.90
52044;DHT22;38053;53.100;6.078;2023-04-03T17:22:43;8.00;91.80
52044;DHT22;38053;53.100;6.078;2023-04-03T17:25:12;7.90;92.10
52044;DHT22;38053;53.100;6.078;2023-04-03T17:27:38;7.90;92.80
52044;DHT22;38053;53.100;6.078;2023-04-03T17:30:11;7.90;93.30
52044;DHT22;38053;53.100;6.078;2023-04-03T17:32:37;7.80;93.00
52044;DHT22;38053;53.100;6.078;2023-04-03T17:35:06;7.80;93.50
52044;DHT22;38053;53.100;6.078;2023-04-03T17:37:32;7.70;93.90
52044;DHT22;38053;53.100;6.078;2023-04-03T17:39:57;7.60;94.10
52044;DHT22;38053;53.100;6.078;2023-04-03T17:42:23;7.50;94.50
52044;DHT22;38053;53.100;6.078;2023-04-03T17:44:49;7.40;94.60
52044;DHT22;38053;53.100;6.078;2023-04-03T17:47:15;7.40;95.00
52044;DHT22;38053;53.100;6.078;2023-04-03T17:49:41;7.20;95.30
52044;DHT22;38053;53.100;6.078;2023-04-03T17:52:07;7.20;95.90
52044;DHT22;38053;53.100;6.078;2023-04-03T17:54:32;7.10;96.40
52044;DHT22;38053;53.100;6.078;2023-04-03T17:56:58;7.00;96.80
52044;DHT22;38053;53.100;6.078;2023-04-03T17:59:24;6.90;97.40
52044;DHT22;38053;53.100;6.078;2023-04-03T18:01:53;6.70;97.60
52044;DHT22;38053;53.100;6.078;2023-04-03T18:04:26;6.60;98.70
52044;DHT22;38053;53.100;6.078;2023-04-03T18:06:54;6.50;99.00
52044;DHT22;38053;53.100;6.078;2023-04-03T18:09:30;6.40;99.70
52044;DHT22;38053;53.100;6.078;2023-04-03T18:11:59;6.30;99.90
52044;DHT22;38053;53.100;6.078;2023-04-03T18:14:27;6.20;99.90
52044;DHT22;38053;53.100;6.078;2023-04-03T18:16:53;6.10;99.90
52044;DHT22;38053;53.100;6.078;2023-04-03T18:19:22;6.00;99.90
52044;DHT22;38053;53.100;6.078;2023-04-03T18:21:51;5.90;99.90
52044;DHT22;38053;53.100;6.078;2023-04-03T18:24:21;5.90;99.90
52044;DHT22;38053;53.100;6.078;2023-04-03T18:26:54;5.80;99.90
52044;DHT22;38053;53.100;6.078;2023-04-03T18:29:29;5.70;99.90
52044;DHT22;38053;53.100;6.078;2023-04-03T18:32:00;5.60;99.90
52044;DHT22;38053;53.100;6.078;2023-04-03T18:34:30;5.60;99.90
52044;DHT22;38053;53.100;6.078;2023-04-03T18:36:57;5.50;99.90
52044;DHT22;38053;53.100;6.078;2023-04-03T18:39:23;5.40;99.90